createdAt,value
2023-01-29T00:00:37.677Z,25.77
2023-01-29T00:03:05.680Z,31.27
2023-01-29T00:05:32.947Z,26.08
2023-01-29T00:08:00.262Z,30.10
2023-01-29T00:10:27.527Z,32.63
2023-01-29T00:12:54.980Z,32.42
2023-01-29T00:15:22.239Z,33.83
2023-01-29T00:17:49.530Z,27.27
2023-01-29T00:20:17.411Z,29.83
2023-01-29T00:22:44.901Z,30.10
2023-01-29T00:25:12.274Z,29.45
2023-01-29T00:27:39.522Z,27.27
2023-01-29T00:30:12.150Z,30.27
2023-01-29T00:32:39.413Z,31.25
2023-01-29T00:35:06.669Z,32.72
2023-01-29T00:37:33.957Z,34.17
2023-01-29T00:40:01.121Z,30.20
2023-01-29T00:42:47.312Z,32.88
2023-01-29T00:45:14.546Z,33.00
2023-01-29T00:47:41.759Z,31.98
2023-01-29T00:50:09.050Z,33.55
2023-01-29T00:52:41.030Z,38.65
2023-01-29T00:55:08.314Z,36.70
2023-01-29T00:57:35.492Z,36.08
2023-01-29T01:00:03.557Z,27.77
2023-01-29T01:02:50.017Z,34.75
2023-01-29T01:05:20.402Z,35.20
2023-01-29T01:07:47.782Z,43.22
2023-01-29T01:10:21.375Z,37.80
2023-01-29T01:12:48.648Z,35.67
2023-01-29T01:15:16.013Z,34.65
2023-01-29T01:17:43.321Z,36.63
2023-01-29T01:20:10.885Z,42.33
2023-01-29T01:22:38.143Z,39.22
2023-01-29T01:25:05.382Z,43.25
2023-01-29T01:27:32.676Z,35.72
2023-01-29T01:29:59.849Z,32.95
2023-01-29T01:32:27.157Z,48.38
2023-01-29T01:34:54.384Z,39.30
2023-01-29T01:37:22.130Z,39.53
2023-01-29T01:39:50.633Z,43.10
2023-01-29T01:42:17.931Z,40.30
2023-01-29T01:44:45.147Z,36.45
2023-01-29T01:47:12.402Z,34.83
2023-01-29T01:49:40.459Z,41.35
2023-01-29T01:52:07.720Z,38.63
2023-01-29T01:54:34.921Z,37.20
2023-01-29T01:57:09.273Z,38.53
2023-01-29T01:59:36.546Z,42.20
2023-01-29T02:02:22.740Z,39.45
2023-01-29T02:05:09.071Z,38.53
2023-01-29T02:07:55.393Z,35.05
2023-01-29T02:10:23.228Z,36.00
2023-01-29T02:12:52.148Z,39.88
2023-01-29T02:15:19.621Z,35.25
2023-01-29T02:17:48.516Z,34.78
2023-01-29T02:20:16.027Z,39.90
2023-01-29T02:22:43.388Z,50.92
2023-01-29T02:25:10.687Z,34.03
2023-01-29T02:27:37.856Z,34.45
2023-01-29T02:30:05.144Z,38.92
2023-01-29T02:32:32.531Z,36.13
2023-01-29T02:35:18.621Z,38.35
2023-01-29T02:37:46.309Z,39.80
2023-01-29T02:40:13.666Z,42.97
2023-01-29T02:42:40.942Z,35.60
2023-01-29T02:45:08.132Z,36.88
2023-01-29T02:47:35.933Z,36.15
2023-01-29T02:50:03.305Z,42.97
2023-01-29T02:52:30.614Z,39.92
2023-01-29T02:54:59.881Z,34.35
2023-01-29T02:57:30.720Z,43.83
2023-01-29T02:59:57.939Z,39.38
2023-01-29T03:02:25.400Z,32.13
2023-01-29T03:04:53.237Z,32.28
2023-01-29T03:07:40.674Z,35.88
2023-01-29T03:10:09.325Z,36.33
2023-01-29T03:12:36.493Z,37.78
2023-01-29T03:15:11.675Z,35.58
2023-01-29T03:17:40.156Z,36.15
2023-01-29T03:20:08.053Z,37.97
2023-01-29T03:22:35.450Z,36.63
2023-01-29T03:25:21.448Z,35.65
2023-01-29T03:28:07.922Z,42.65
2023-01-29T03:31:00.004Z,45.17
2023-01-29T03:34:04.002Z,40.85
2023-01-29T03:36:38.056Z,39.88
2023-01-29T03:39:05.778Z,41.05
2023-01-29T03:41:34.283Z,39.28
2023-01-29T03:44:01.566Z,45.80
2023-01-29T03:46:29.300Z,40.42
2023-01-29T03:48:56.639Z,42.80
2023-01-29T03:51:23.864Z,41.40
2023-01-29T03:53:51.996Z,40.15
2023-01-29T03:56:19.231Z,41.10
2023-01-29T03:58:46.522Z,33.25
2023-01-29T04:01:16.561Z,42.10
2023-01-29T04:03:44.097Z,39.92
2023-01-29T04:06:11.557Z,38.17
2023-01-29T04:08:45.478Z,42.67
2023-01-29T04:11:12.752Z,40.63
2023-01-29T04:13:39.990Z,42.97
2023-01-29T04:16:07.813Z,42.08
2023-01-29T04:18:57.950Z,39.60
2023-01-29T04:21:32.018Z,37.83
2023-01-29T04:23:59.886Z,42.97
2023-01-29T04:26:27.144Z,46.17
2023-01-29T04:28:55.169Z,34.83
2023-01-29T04:31:22.867Z,34.67
2023-01-29T04:33:50.213Z,50.30
2023-01-29T04:36:18.048Z,34.05
2023-01-29T04:38:45.278Z,45.03
2023-01-29T04:41:12.462Z,39.97
2023-01-29T04:43:39.724Z,39.42
2023-01-29T04:46:06.884Z,40.33
2023-01-29T04:48:34.160Z,37.90
2023-01-29T04:51:01.345Z,43.33
2023-01-29T04:53:28.976Z,38.90
2023-01-29T04:55:56.822Z,41.63
2023-01-29T04:58:24.071Z,36.78
2023-01-29T05:00:51.241Z,38.08
2023-01-29T05:03:18.477Z,35.38
2023-01-29T05:05:45.682Z,40.05
2023-01-29T05:08:13.413Z,34.92
2023-01-29T05:10:40.615Z,34.17
2023-01-29T05:13:07.897Z,39.55
2023-01-29T05:15:35.090Z,38.63
2023-01-29T05:18:03.071Z,37.08
2023-01-29T05:20:30.351Z,34.40
2023-01-29T05:22:57.644Z,39.05
2023-01-29T05:25:24.864Z,39.75
2023-01-29T05:28:04.641Z,37.95
2023-01-29T05:30:31.883Z,39.45
2023-01-29T05:32:59.114Z,40.15
2023-01-29T05:35:28.492Z,30.92
2023-01-29T05:37:55.991Z,37.03
2023-01-29T05:40:23.236Z,34.15
2023-01-29T05:42:51.016Z,42.60
2023-01-29T05:45:18.690Z,32.30
2023-01-29T05:47:45.924Z,37.53
2023-01-29T05:50:13.264Z,32.13
2023-01-29T05:52:40.454Z,32.83
2023-01-29T05:55:07.739Z,39.63
2023-01-29T05:57:34.929Z,34.28
2023-01-29T06:00:02.135Z,32.60
2023-01-29T06:02:39.480Z,31.15
2023-01-29T06:05:06.738Z,31.92
2023-01-29T06:07:34.059Z,32.17
2023-01-29T06:10:01.348Z,35.80
2023-01-29T06:12:28.555Z,31.42
2023-01-29T06:14:55.837Z,31.25
2023-01-29T06:17:23.056Z,29.85
2023-01-29T06:19:50.285Z,28.63
2023-01-29T06:22:17.492Z,28.92
2023-01-29T06:24:45.730Z,33.80
2023-01-29T06:27:13.003Z,25.65
2023-01-29T06:29:40.237Z,29.73
2023-01-29T06:32:07.554Z,28.60
2023-01-29T06:34:34.853Z,28.52
2023-01-29T06:37:02.142Z,29.13
2023-01-29T06:39:29.436Z,28.17
2023-01-29T06:41:56.664Z,28.33
2023-01-29T06:44:23.893Z,25.17
2023-01-29T06:46:51.106Z,27.25
2023-01-29T06:49:18.333Z,21.33
2023-01-29T06:51:45.526Z,24.08
2023-01-29T06:54:12.905Z,25.27
2023-01-29T06:56:40.095Z,27.42
2023-01-29T06:59:07.322Z,23.52
2023-01-29T07:01:36.414Z,20.83
2023-01-29T07:04:04.052Z,23.38
2023-01-29T07:06:31.349Z,22.38
2023-01-29T07:08:58.590Z,19.85
2023-01-29T07:11:25.801Z,19.67
2023-01-29T07:13:53.052Z,23.95
2023-01-29T07:16:20.330Z,22.50
2023-01-29T07:18:47.576Z,20.15
2023-01-29T07:21:14.763Z,19.63
2023-01-29T07:23:42.110Z,20.20
2023-01-29T07:26:09.377Z,18.98
2023-01-29T07:28:36.791Z,20.20
2023-01-29T07:31:04.114Z,18.85
2023-01-29T07:33:31.368Z,13.95
2023-01-29T07:35:58.532Z,20.08
2023-01-29T07:38:25.791Z,15.77
2023-01-29T07:40:52.973Z,20.17
2023-01-29T07:43:20.301Z,18.38
2023-01-29T07:45:47.760Z,17.83
2023-01-29T07:48:15.059Z,18.30
2023-01-29T07:50:43.997Z,19.80
2023-01-29T07:53:11.299Z,19.70
2023-01-29T07:55:38.490Z,17.33
2023-01-29T07:58:05.792Z,18.85
2023-01-29T08:00:33.002Z,20.08
2023-01-29T08:03:00.216Z,19.35
2023-01-29T08:05:27.391Z,24.10
2023-01-29T08:08:06.093Z,19.67
2023-01-29T08:10:33.632Z,14.45
2023-01-29T08:13:00.832Z,17.17
2023-01-29T08:15:28.054Z,14.68
2023-01-29T08:20:42.665Z,16.25
2023-01-29T08:23:09.931Z,16.77
2023-01-29T08:25:37.217Z,13.82
2023-01-29T08:28:04.555Z,15.00
2023-01-29T08:30:31.895Z,16.08
2023-01-29T08:32:59.167Z,17.20
2023-01-29T08:35:26.407Z,16.13
2023-01-29T08:37:54.301Z,16.70
2023-01-29T08:40:21.575Z,16.45
2023-01-29T08:42:48.838Z,18.88
2023-01-29T08:45:16.099Z,16.42
2023-01-29T08:47:43.636Z,18.25
2023-01-29T08:50:10.935Z,18.73
2023-01-29T08:52:38.213Z,16.52
2023-01-29T08:55:05.365Z,16.60
2023-01-29T08:57:32.674Z,18.38
2023-01-29T08:59:59.892Z,21.85
2023-01-29T09:02:27.191Z,18.00
2023-01-29T09:04:54.695Z,20.10
2023-01-29T09:07:21.939Z,20.35
2023-01-29T09:09:49.196Z,23.33
2023-01-29T09:12:16.501Z,19.33
2023-01-29T09:14:43.871Z,26.23
2023-01-29T09:17:11.043Z,18.85
2023-01-29T09:19:38.240Z,19.13
2023-01-29T09:22:05.436Z,17.77
2023-01-29T09:24:33.101Z,22.50
2023-01-29T09:27:00.339Z,20.15
2023-01-29T09:29:27.607Z,23.35
2023-01-29T09:31:54.890Z,22.50
2023-01-29T09:34:22.235Z,23.33
2023-01-29T09:36:49.427Z,20.90
2023-01-29T09:39:16.805Z,23.48
2023-01-29T09:41:44.019Z,22.48
2023-01-29T09:44:11.327Z,19.80
2023-01-29T09:46:38.557Z,21.63
2023-01-29T09:49:05.788Z,20.77
2023-01-29T09:51:32.977Z,21.92
2023-01-29T09:54:00.234Z,17.15
2023-01-29T09:56:29.083Z,17.02
2023-01-29T09:58:56.429Z,18.25
2023-01-29T10:01:23.762Z,18.75
2023-01-29T10:03:52.057Z,18.45
2023-01-29T10:06:19.238Z,21.45
2023-01-29T10:08:46.651Z,21.27
2023-01-29T10:11:13.960Z,15.20
2023-01-29T10:13:41.252Z,15.38
2023-01-29T10:16:08.471Z,18.73
2023-01-29T10:18:35.720Z,18.65
2023-01-29T10:21:04.510Z,18.23
2023-01-29T10:23:34.174Z,22.40
2023-01-29T10:26:02.002Z,16.90
2023-01-29T10:28:29.253Z,17.05
2023-01-29T10:30:56.604Z,18.13
2023-01-29T10:33:23.954Z,17.05
2023-01-29T10:35:53.801Z,18.27
2023-01-29T10:38:22.636Z,18.73
2023-01-29T10:40:49.796Z,21.83
2023-01-29T10:43:17.091Z,20.25
2023-01-29T10:45:44.301Z,20.77
2023-01-29T10:48:11.732Z,22.27
2023-01-29T10:50:38.899Z,23.05
2023-01-29T10:53:06.337Z,15.82
2023-01-29T10:55:33.625Z,22.77
2023-01-29T10:58:02.864Z,21.67
2023-01-29T11:00:30.538Z,19.63
2023-01-29T11:02:58.428Z,19.10
2023-01-29T11:05:25.714Z,20.17
2023-01-29T11:07:52.888Z,17.55
2023-01-29T11:10:20.376Z,20.67
2023-01-29T11:12:47.599Z,17.65
2023-01-29T11:15:14.868Z,18.50
2023-01-29T11:17:42.819Z,18.90
2023-01-29T11:20:10.240Z,23.00
2023-01-29T11:22:37.564Z,20.00
2023-01-29T11:25:04.883Z,17.05
2023-01-29T11:27:32.073Z,19.00
2023-01-29T11:29:59.347Z,23.60
2023-01-29T11:32:26.605Z,19.77
2023-01-29T11:34:53.952Z,14.60
2023-01-29T11:37:21.142Z,25.23
2023-01-29T11:39:48.465Z,21.63
2023-01-29T11:42:15.703Z,21.42
2023-01-29T11:44:42.951Z,15.77
2023-01-29T11:47:10.132Z,28.88
2023-01-29T11:49:37.444Z,21.50
2023-01-29T11:52:04.789Z,14.32
2023-01-29T11:54:32.085Z,16.85
2023-01-29T11:56:59.347Z,12.07
2023-01-29T11:59:26.604Z,19.65
2023-01-29T12:01:53.935Z,16.70
2023-01-29T12:04:21.239Z,16.77
2023-01-29T12:06:50.610Z,18.40
2023-01-29T12:09:18.004Z,15.48
2023-01-29T12:11:45.248Z,13.00
2023-01-29T12:14:12.522Z,15.50
2023-01-29T12:16:39.767Z,17.85
2023-01-29T12:19:07.020Z,16.60
2023-01-29T12:21:34.211Z,16.63
2023-01-29T12:24:01.481Z,15.75
2023-01-29T12:26:28.730Z,13.38
2023-01-29T12:28:56.008Z,14.02
2023-01-29T12:31:23.303Z,17.23
2023-01-29T12:33:50.570Z,22.08
2023-01-29T12:36:17.826Z,13.60
2023-01-29T12:38:45.002Z,12.55
2023-01-29T12:41:12.287Z,12.60
2023-01-29T12:43:39.486Z,26.42
2023-01-29T12:46:06.740Z,11.77
2023-01-29T12:48:34.161Z,10.20
2023-01-29T12:51:01.401Z,9.18
2023-01-29T12:53:28.699Z,16.70
2023-01-29T12:55:56.153Z,12.93
2023-01-29T12:58:23.493Z,10.13
2023-01-29T13:00:50.844Z,10.45
2023-01-29T13:03:18.970Z,10.00
2023-01-29T13:05:46.407Z,8.20
2023-01-29T13:08:13.809Z,8.48
2023-01-29T13:10:41.116Z,9.75
2023-01-29T13:13:08.390Z,8.88
2023-01-29T13:15:36.203Z,10.60
2023-01-29T13:18:03.443Z,13.30
2023-01-29T13:20:30.724Z,11.60
2023-01-29T13:22:58.072Z,9.48
2023-01-29T13:25:25.282Z,7.93
2023-01-29T13:27:52.573Z,9.32
2023-01-29T13:30:19.782Z,9.82
2023-01-29T13:32:47.387Z,8.10
2023-01-29T13:35:14.812Z,10.70
2023-01-29T13:37:42.307Z,9.73
2023-01-29T13:40:09.536Z,7.35
2023-01-29T13:42:36.830Z,8.68
2023-01-29T13:45:04.290Z,6.22
2023-01-29T13:47:31.484Z,7.15
2023-01-29T13:49:58.821Z,7.13
2023-01-29T13:52:26.119Z,6.03
2023-01-29T13:54:53.455Z,4.65
2023-01-29T13:57:20.729Z,6.93
2023-01-29T13:59:47.954Z,6.25
2023-01-29T14:02:15.240Z,5.95
2023-01-29T14:04:42.509Z,3.90
2023-01-29T14:07:09.753Z,5.00
2023-01-29T14:09:37.115Z,3.40
2023-01-29T14:12:04.459Z,4.22
2023-01-29T14:14:32.096Z,3.60
2023-01-29T14:16:59.490Z,5.15
2023-01-29T14:19:26.879Z,4.57
2023-01-29T14:21:54.129Z,3.45
2023-01-29T14:24:21.439Z,3.47
2023-01-29T14:26:48.804Z,3.30
2023-01-29T14:29:18.763Z,3.97
2023-01-29T14:31:48.871Z,4.53
2023-01-29T14:34:16.163Z,3.00
2023-01-29T14:36:43.511Z,4.05
2023-01-29T14:39:10.751Z,2.45
2023-01-29T14:41:38.062Z,3.42
2023-01-29T14:44:05.262Z,5.53
2023-01-29T14:46:32.630Z,3.38
2023-01-29T14:48:59.864Z,5.57
2023-01-29T14:51:27.143Z,5.57
2023-01-29T14:53:54.437Z,3.13
2023-01-29T14:56:22.038Z,5.05
2023-01-29T14:58:49.305Z,6.45
2023-01-29T15:01:16.723Z,3.53
2023-01-29T15:03:43.929Z,4.50
2023-01-29T15:06:11.152Z,5.43
2023-01-29T15:08:38.404Z,5.53
2023-01-29T15:11:24.476Z,3.25
2023-01-29T15:13:51.812Z,2.75
2023-01-29T15:16:19.090Z,4.95
2023-01-29T15:18:46.350Z,3.05
2023-01-29T15:21:13.722Z,7.10
2023-01-29T15:23:41.000Z,6.15
2023-01-29T15:26:09.320Z,3.45
2023-01-29T15:28:36.678Z,2.92
2023-01-29T15:31:08.034Z,6.47
2023-01-29T15:33:35.374Z,4.38
2023-01-29T15:36:07.415Z,5.10
2023-01-29T15:38:35.274Z,5.78
2023-01-29T15:41:02.505Z,6.57
2023-01-29T15:43:30.045Z,3.55
2023-01-29T15:45:57.326Z,5.95
2023-01-29T15:48:24.569Z,4.13
2023-01-29T15:50:51.727Z,5.28
2023-01-29T15:53:18.961Z,5.82
2023-01-29T15:55:46.188Z,6.05
2023-01-29T15:58:13.437Z,4.65
2023-01-29T16:00:40.680Z,4.40
2023-01-29T16:03:07.989Z,4.78
2023-01-29T16:05:35.256Z,4.85
2023-01-29T16:08:02.621Z,3.08
2023-01-29T16:10:29.804Z,5.15
2023-01-29T16:12:57.081Z,3.55
2023-01-29T16:15:24.286Z,12.60
2023-01-29T16:17:52.014Z,4.57
2023-01-29T16:20:19.735Z,4.47
2023-01-29T16:22:46.989Z,3.28
2023-01-29T16:25:14.231Z,7.28
2023-01-29T16:27:44.696Z,4.97
2023-01-29T16:30:11.983Z,5.40
2023-01-29T16:32:39.253Z,4.43
2023-01-29T16:35:06.665Z,4.15
2023-01-29T16:37:33.944Z,5.40
2023-01-29T16:40:01.236Z,3.70
2023-01-29T16:42:28.479Z,2.97
2023-01-29T16:44:55.758Z,1.88
2023-01-29T16:47:23.815Z,2.50
2023-01-29T16:49:51.157Z,6.28
2023-01-29T16:52:18.424Z,2.03
2023-01-29T16:54:45.748Z,2.40
2023-01-29T16:57:12.954Z,5.15
2023-01-29T16:59:40.203Z,2.75
2023-01-29T17:02:07.367Z,4.90
2023-01-29T17:04:34.562Z,2.85
2023-01-29T17:07:01.820Z,2.60
2023-01-29T17:09:29.079Z,1.90
2023-01-29T17:11:56.323Z,1.80
2023-01-29T17:14:23.560Z,3.03
2023-01-29T17:16:50.826Z,2.80
2023-01-29T17:19:18.520Z,2.40
2023-01-29T17:21:47.068Z,3.08
2023-01-29T17:24:14.319Z,3.05
2023-01-29T17:26:41.687Z,2.63
2023-01-29T17:29:09.736Z,2.05
2023-01-29T17:31:38.088Z,4.00
2023-01-29T17:34:05.406Z,3.88
2023-01-29T17:36:32.690Z,3.03
2023-01-29T17:39:01.253Z,2.72
2023-01-29T17:41:28.587Z,3.53
2023-01-29T17:43:55.813Z,3.15
2023-01-29T17:46:22.985Z,2.45
2023-01-29T17:48:50.421Z,4.07
2023-01-29T17:51:17.819Z,3.83
2023-01-29T17:53:46.668Z,3.25
2023-01-29T17:56:14.527Z,2.20
2023-01-29T17:58:42.192Z,3.55
2023-01-29T18:01:09.612Z,3.70
2023-01-29T18:03:36.905Z,6.13
2023-01-29T18:06:04.192Z,3.35
2023-01-29T18:08:31.573Z,7.25
2023-01-29T18:10:58.800Z,1.40
2023-01-29T18:13:26.114Z,2.30
2023-01-29T18:15:53.283Z,2.40
2023-01-29T18:18:20.629Z,4.15
2023-01-29T18:20:49.128Z,1.27
2023-01-29T18:23:16.390Z,4.13
2023-01-29T18:25:44.136Z,2.40
2023-01-29T18:28:11.398Z,2.05
2023-01-29T18:30:38.674Z,4.85
2023-01-29T18:33:06.089Z,2.75
2023-01-29T18:35:33.320Z,5.60
2023-01-29T18:38:00.679Z,5.63
2023-01-29T18:40:27.923Z,2.13
2023-01-29T18:42:55.399Z,3.08
2023-01-29T18:45:22.604Z,3.25
2023-01-29T18:47:49.829Z,3.33
2023-01-29T18:50:17.064Z,3.65
2023-01-29T18:52:44.366Z,1.73
2023-01-29T18:55:11.604Z,1.38
2023-01-29T18:58:28.202Z,2.08
2023-01-29T19:00:28.054Z,2.85
2023-01-29T19:02:55.331Z,2.53
2023-01-29T19:05:24.555Z,1.67
2023-01-29T19:07:55.103Z,3.33
2023-01-29T19:10:22.710Z,7.43
2023-01-29T19:12:49.930Z,3.15
2023-01-29T19:15:20.590Z,6.65
2023-01-29T19:17:47.897Z,3.83
2023-01-29T19:20:15.626Z,4.45
2023-01-29T19:22:42.978Z,2.65
2023-01-29T19:25:10.203Z,2.72
2023-01-29T19:27:37.441Z,6.18
2023-01-29T19:30:05.813Z,4.10
2023-01-29T19:32:33.252Z,5.40
2023-01-29T19:35:00.666Z,2.78
2023-01-29T19:37:27.938Z,4.40
2023-01-29T19:39:55.160Z,3.15
2023-01-29T19:42:22.419Z,2.92
2023-01-29T19:44:51.157Z,5.45
2023-01-29T19:47:18.469Z,4.25
2023-01-29T19:49:45.882Z,6.70
2023-01-29T19:52:49.882Z,5.82
2023-01-29T19:55:18.265Z,4.13
2023-01-29T19:57:45.919Z,4.80
2023-01-29T20:00:14.892Z,3.40
2023-01-29T20:02:42.376Z,5.93
2023-01-29T20:05:12.151Z,5.15
2023-01-29T20:07:40.005Z,3.80
2023-01-29T20:10:07.354Z,4.95
2023-01-29T20:12:34.926Z,3.90
2023-01-29T20:15:02.131Z,7.32
2023-01-29T20:17:29.381Z,5.22
2023-01-29T20:19:56.721Z,4.55
2023-01-29T20:22:24.012Z,7.75
2023-01-29T20:24:51.218Z,5.88
2023-01-29T20:27:18.660Z,6.05
2023-01-29T20:29:46.669Z,4.15
2023-01-29T20:32:14.602Z,9.38
2023-01-29T20:34:41.885Z,5.47
2023-01-29T20:37:09.147Z,6.30
2023-01-29T20:39:36.359Z,4.88
2023-01-29T20:42:03.685Z,4.50
2023-01-29T20:44:30.875Z,4.18
2023-01-29T20:47:01.717Z,6.45
2023-01-29T20:49:29.358Z,5.55
2023-01-29T20:51:56.690Z,11.52
2023-01-29T20:54:23.992Z,5.32
2023-01-29T20:56:51.309Z,4.57
2023-01-29T20:59:19.037Z,6.30
2023-01-29T21:01:46.498Z,7.65
2023-01-29T21:04:13.866Z,7.32
2023-01-29T21:06:41.047Z,4.97
2023-01-29T21:09:08.396Z,6.45
2023-01-29T21:11:35.684Z,6.10
2023-01-29T21:14:03.046Z,4.85
2023-01-29T21:16:30.378Z,3.63
2023-01-29T21:18:57.773Z,5.13
2023-01-29T21:21:26.570Z,6.57
2023-01-29T21:23:53.991Z,3.28
2023-01-29T21:26:21.333Z,9.68
2023-01-29T21:28:48.623Z,7.90
2023-01-29T21:31:16.917Z,6.25
2023-01-29T21:33:44.465Z,7.93
2023-01-29T21:36:11.696Z,8.65
2023-01-29T21:38:38.984Z,6.13
2023-01-29T21:41:06.390Z,6.15
2023-01-29T21:43:33.621Z,6.93
2023-01-29T21:46:00.912Z,6.45
2023-01-29T21:48:28.250Z,5.65
2023-01-29T21:50:55.440Z,6.07
2023-01-29T21:53:22.753Z,5.68
2023-01-29T21:55:50.058Z,6.78
2023-01-29T21:58:17.375Z,6.88
2023-01-29T22:00:48.796Z,6.15
2023-01-29T22:03:16.737Z,11.07
2023-01-29T22:05:43.949Z,7.88
2023-01-29T22:08:11.196Z,6.95
2023-01-29T22:10:39.066Z,9.07
2023-01-29T22:13:06.428Z,8.13
2023-01-29T22:15:33.712Z,8.75
2023-01-29T22:18:00.995Z,9.40
2023-01-29T22:20:30.790Z,7.43
2023-01-29T22:22:58.708Z,6.10
2023-01-29T22:25:25.979Z,11.13
2023-01-29T22:27:53.234Z,8.48
2023-01-29T22:30:20.961Z,6.85
2023-01-29T22:32:48.231Z,7.13
2023-01-29T22:35:15.473Z,7.85
2023-01-29T22:37:42.664Z,8.68
2023-01-29T22:40:09.900Z,8.52
2023-01-29T22:42:37.069Z,13.40
2023-01-29T22:45:04.289Z,5.43
2023-01-29T22:47:31.801Z,6.20
2023-01-29T22:49:59.080Z,9.77
2023-01-29T22:52:27.998Z,9.75
2023-01-29T22:54:55.521Z,5.07
2023-01-29T22:57:22.819Z,8.10
2023-01-29T22:59:49.998Z,5.80
2023-01-29T23:02:17.440Z,9.27
2023-01-29T23:04:44.736Z,6.72
2023-01-29T23:07:12.041Z,9.25
2023-01-29T23:09:39.318Z,11.38
2023-01-29T23:12:06.935Z,14.52
2023-01-29T23:14:34.196Z,11.82
2023-01-29T23:17:01.505Z,7.38
2023-01-29T23:19:30.078Z,11.63
2023-01-29T23:21:57.365Z,7.22
2023-01-29T23:24:24.728Z,12.15
2023-01-29T23:27:10.864Z,10.70
2023-01-29T23:29:38.150Z,12.98
2023-01-29T23:32:05.421Z,11.45
2023-01-29T23:34:32.701Z,11.65
2023-01-29T23:36:59.948Z,13.82
2023-01-29T23:39:27.202Z,15.88
2023-01-29T23:41:54.407Z,11.65
2023-01-29T23:44:21.732Z,11.50
2023-01-29T23:46:49.034Z,10.98
2023-01-29T23:49:16.339Z,14.20
2023-01-29T23:51:44.510Z,12.95
2023-01-29T23:54:11.771Z,8.18
2023-01-29T23:56:38.959Z,11.85
2023-01-29T23:59:06.252Z,12.95
